Meteo Giornale » Osservazioni meteo Russia » Polyarny
ore: 11:30 - Osservazioni Meteo Polyarny
Lat. 66° 24' N Lon. 112° 2' E Alt. 509 metri s.l.m.
20 °C
Caligine
Temp. 24 Ore
13 °C
22 °C
Sud
14.4 Km/h
Dew point 8 °C
Umidità 45 %
Visibilità 1 Km
Il sole sorge alle ore 06:05
Il sole tramonta alle ore 20:58
| Data e Ora | Cielo e Fenomeni | T °C | DP °C | Um. % | Pres. hPa | Vis. km | Vento km/h | |
|---|---|---|---|---|---|---|---|---|
| Oggi h: 11:30 | Caligine | 20 | 8 | 45 | 1009 | 1 | S 14.4 | |
| Oggi h: 11:00 | Caligine | 18 | 8 | 51 | 1009 | 1 | S/SE 14.4 | |
| Oggi h: 10:46 | Caligine | 18 | 8 | 51 | 1009 | 2 | S/SE 18 | |
| Oggi h: 10:30 | Caligine | 17 | 8 | 55 | 1009 | 2 | S 10.8 | |
| Oggi h: 10:00 | Caligine | 16 | 8 | 58 | 1010 | 2 | S/SE 10.8 | |
| Oggi h: 09:43 | Caligine | 16 | 8 | 58 | 1010 | 2 | S 14.4 | |
| Oggi h: 09:30 | Caligine | 15 | 8 | 62 | 1010 | 1 | S 10.8 | |
| Oggi h: 09:00 | Caligine | 15 | 8 | 62 | 1009 | 1 | S/SE 10.8 | |
| Oggi h: 08:30 | Caligine | 14 | 8 | 67 | 1009 | 1 | N 7.2 | |
| Oggi h: 08:00 | Caligine | 14 | 7 | 62 | 1010 | 1 | N 7.2 | |
| Oggi h: 07:30 | Caligine | 13 | 7 | 66 | 1010 | 1 | S/SE 10.8 | |
| Oggi h: 07:00 | Caligine | 13 | 7 | 66 | 1010 | 1 | S/SE 10.8 | |
| Oggi h: 06:30 | Caligine | 13 | 7 | 66 | 1010 | 2 | SE 10.8 | |
| Oggi h: 06:00 | Caligine | 13 | 7 | 66 | 1010 | 2 | SE 14.4 | |
| Oggi h: 05:30 | Caligine | 13 | 7 | 66 | 1011 | 2 | SE 14.4 | |
| Oggi h: 05:00 | Caligine | 13 | 7 | 66 | 1011 | 1 | SE 10.8 | |
| Oggi h: 04:00 | Caligine | 15 | 7 | 58 | 1011 | 1 | SE 10.8 | |
| Ieri h: 18:00 | Caligine | 19 | 8 | 48 | 1011 | 2 | S 10.8 | |
| Ieri h: 17:36 | Caligine | 19 | 8 | 48 | 1011 | 2 | S 10.8 | |
| Ieri h: 17:30 | Caligine | 19 | 8 | 48 | 1011 | 6 | S 10.8 | |
| Ieri h: 17:00 | Caligine | 20 | 8 | 45 | 1011 | 6 | S 14.4 | |
| Ieri h: 16:30 | Caligine | 20 | 8 | 45 | 1011 | 6 | S 14.4 | |
| Ieri h: 16:00 | Caligine | 21 | 8 | 43 | 1011 | 6 | S/SO 10.8 | |
| Ieri h: 15:30 | Caligine | 22 | 8 | 40 | 1011 | 7 | S/SO 14.4 | |
| Ieri h: 15:00 | Caligine | 22 | 9 | 43 | 1012 | 9 | S/SO 10.8 | |
| Ieri h: 14:30 | Caligine | 21 | 9 | 46 | 1012 | 9 | S/SO 10.8 | |
| Ieri h: 14:11 | Molto Nuvoloso | 21 | 8 | 43 | 1012 | 10 | S/SO 14.4 | |
| Ieri h: 14:00 | Caligine | 21 | 9 | 46 | 1011 | 5 | S 10.8 | |
| Ieri h: 13:30 | Caligine | 20 | 9 | 49 | 1012 | 5 | S 18 | |
| Ieri h: 13:07 | Caligine | 20 | 10 | 52 | 1012 | 5 | S 10.8 | |
| Ieri h: 13:00 | Caligine | 20 | 10 | 52 | 1013 | 5 | S 10.8 | |



